createdAt,value
2019-03-22T00:02:59.550Z,99.90
2019-03-22T00:05:59.961Z,99.90
2019-03-22T00:09:00.304Z,99.90
2019-03-22T00:12:00.778Z,99.90
2019-03-22T00:15:01.245Z,99.90
2019-03-22T00:18:01.741Z,99.90
2019-03-22T00:21:02.682Z,99.90
2019-03-22T00:24:03.027Z,99.90
2019-03-22T00:27:03.329Z,99.90
2019-03-22T00:30:04.106Z,99.90
2019-03-22T00:33:05.267Z,99.90
2019-03-22T00:36:05.567Z,99.90
2019-03-22T00:39:06.377Z,99.90
2019-03-22T00:42:06.704Z,99.90
2019-03-22T00:45:07.122Z,99.90
2019-03-22T00:48:08.334Z,99.90
2019-03-22T00:51:08.630Z,99.90
2019-03-22T00:54:09.005Z,99.90
2019-03-22T00:57:09.345Z,99.90
2019-03-22T01:00:09.757Z,99.90
2019-03-22T01:03:10.134Z,99.90
2019-03-22T01:06:10.449Z,99.90
2019-03-22T01:09:11.174Z,99.90
2019-03-22T01:12:12.350Z,99.90
2019-03-22T01:15:12.808Z,99.90
2019-03-22T01:18:13.910Z,99.90
2019-03-22T01:21:14.310Z,99.90
2019-03-22T01:24:14.642Z,99.90
2019-03-22T01:27:15.035Z,99.90
2019-03-22T01:30:15.313Z,99.90
2019-03-22T01:33:15.794Z,99.90
2019-03-22T01:36:16.442Z,99.90
2019-03-22T01:39:16.862Z,99.90
2019-03-22T01:42:18.129Z,99.90
2019-03-22T01:45:19.720Z,99.90
2019-03-22T01:48:20.325Z,99.90
2019-03-22T01:51:21.662Z,99.90
2019-03-22T01:54:23.243Z,99.90
2019-03-22T01:57:24.183Z,99.90
2019-03-22T02:00:25.141Z,99.90
2019-03-22T02:03:25.779Z,99.90
2019-03-22T02:06:26.434Z,99.90
2019-03-22T02:09:27.623Z,99.90
2019-03-22T02:12:28.520Z,99.90
2019-03-22T02:15:29.797Z,99.90
2019-03-22T02:18:30.777Z,99.90
2019-03-22T02:21:31.962Z,99.90
2019-03-22T02:24:32.606Z,99.90
2019-03-22T02:27:33.555Z,99.90
2019-03-22T02:30:34.391Z,99.90
2019-03-22T02:33:35.039Z,99.90
2019-03-22T02:36:36.285Z,99.90
2019-03-22T02:39:37.065Z,99.90
2019-03-22T02:42:39.220Z,99.90
2019-03-22T02:45:27.857Z,99.90
2019-03-22T02:48:35.929Z,99.90
2019-03-22T02:51:37.166Z,99.90
2019-03-22T02:54:38.022Z,99.90
2019-03-22T02:57:40.671Z,99.90
2019-03-22T03:00:41.923Z,99.90
2019-03-22T03:03:42.982Z,99.90
2019-03-22T03:06:44.007Z,99.90
2019-03-22T03:09:45.222Z,99.90
2019-03-22T03:12:46.229Z,99.90
2019-03-22T03:15:46.969Z,99.90
2019-03-22T03:18:48.069Z,99.90
2019-03-22T03:21:49.457Z,99.90
2019-03-22T03:24:50.818Z,99.90
2019-03-22T03:27:52.093Z,99.90
2019-03-22T03:30:52.779Z,99.90
2019-03-22T03:33:53.265Z,99.90
2019-03-22T03:36:53.769Z,99.90
2019-03-22T03:39:55.323Z,99.90
2019-03-22T03:42:56.287Z,99.90
2019-03-22T03:45:57.146Z,99.90
2019-03-22T03:48:57.570Z,99.90
2019-03-22T03:51:58.471Z,99.90
2019-03-22T03:54:59.527Z,99.90
2019-03-22T03:58:00.221Z,99.90
2019-03-22T04:01:01.175Z,99.90
2019-03-22T04:04:02.086Z,99.90
2019-03-22T04:07:03.051Z,99.90
2019-03-22T04:10:03.859Z,99.90
2019-03-22T04:13:05.431Z,99.90
2019-03-22T04:16:06.129Z,99.90
2019-03-22T04:19:07.254Z,99.90
2019-03-22T04:22:08.365Z,99.90
2019-03-22T04:25:09.262Z,99.90
2019-03-22T04:28:09.892Z,99.90
2019-03-22T04:31:10.822Z,99.90
2019-03-22T04:34:11.670Z,99.90
2019-03-22T04:37:12.464Z,99.90
2019-03-22T04:40:13.401Z,99.90
2019-03-22T04:43:14.022Z,99.90
2019-03-22T04:46:15.098Z,99.90
2019-03-22T04:49:15.674Z,99.90
2019-03-22T04:52:16.786Z,99.90
2019-03-22T04:55:17.534Z,99.90
2019-03-22T04:58:18.393Z,99.90
2019-03-22T05:01:19.566Z,99.90
2019-03-22T05:04:20.965Z,99.90
2019-03-22T05:07:22.703Z,99.90
2019-03-22T05:10:23.546Z,99.90
2019-03-22T05:13:24.171Z,99.90
2019-03-22T05:16:24.985Z,99.90
2019-03-22T05:19:26.219Z,99.90
2019-03-22T05:22:27.398Z,99.90
2019-03-22T05:25:28.927Z,99.90
2019-03-22T05:28:29.638Z,99.90
2019-03-22T05:31:30.718Z,99.90
2019-03-22T05:34:31.569Z,99.90
2019-03-22T05:37:32.618Z,99.90
2019-03-22T05:40:33.344Z,99.90
2019-03-22T05:43:34.118Z,99.90
2019-03-22T05:46:34.714Z,99.90
2019-03-22T05:49:35.593Z,99.90
2019-03-22T05:52:36.055Z,99.90
2019-03-22T05:55:36.773Z,99.90
2019-03-22T05:58:37.644Z,99.90
2019-03-22T06:01:38.445Z,99.90
2019-03-22T06:04:39.338Z,99.90
2019-03-22T06:07:40.405Z,99.90
2019-03-22T06:10:41.327Z,99.90
2019-03-22T06:13:44.298Z,99.90
2019-03-22T06:16:44.619Z,99.90
2019-03-22T06:19:45.695Z,99.90
2019-03-22T06:22:46.614Z,99.90
2019-03-22T06:25:47.677Z,99.90
2019-03-22T06:28:48.600Z,99.90
2019-03-22T06:31:49.625Z,99.90
2019-03-22T06:34:51.098Z,99.90
2019-03-22T06:37:51.959Z,99.90
2019-03-22T06:40:52.816Z,99.90
2019-03-22T06:43:53.770Z,99.90
2019-03-22T06:46:54.683Z,99.90
2019-03-22T06:49:55.714Z,99.90
2019-03-22T06:52:56.391Z,99.90
2019-03-22T06:55:57.270Z,99.90
2019-03-22T06:58:58.101Z,99.90
2019-03-22T07:01:59.095Z,99.90
2019-03-22T07:05:00.016Z,99.90
2019-03-22T07:08:00.898Z,99.90
2019-03-22T07:11:01.825Z,99.90
2019-03-22T07:14:02.922Z,99.90
2019-03-22T07:17:03.945Z,99.90
2019-03-22T07:20:04.540Z,99.90
2019-03-22T07:23:05.109Z,99.90
2019-03-22T07:26:06.067Z,99.90
2019-03-22T07:29:06.846Z,99.90
2019-03-22T07:32:08.231Z,99.90
2019-03-22T07:35:08.821Z,99.90
2019-03-22T07:38:09.946Z,99.90
2019-03-22T07:41:11.164Z,99.90
2019-03-22T07:44:12.658Z,99.90
2019-03-22T07:47:13.901Z,99.90
2019-03-22T07:50:15.013Z,99.90
2019-03-22T07:53:16.763Z,99.90
2019-03-22T07:56:17.445Z,99.90
2019-03-22T07:59:18.332Z,99.90
2019-03-22T08:02:18.639Z,99.90
2019-03-22T08:05:19.250Z,99.90
2019-03-22T08:08:20.248Z,99.90
2019-03-22T08:11:20.742Z,99.90
2019-03-22T08:14:21.379Z,99.90
2019-03-22T08:17:22.237Z,99.90
2019-03-22T08:20:22.929Z,99.90
2019-03-22T08:23:23.806Z,99.90
2019-03-22T08:26:24.590Z,99.90
2019-03-22T08:29:25.167Z,99.90
2019-03-22T08:32:26.424Z,99.90
2019-03-22T08:35:26.898Z,99.90
2019-03-22T08:38:27.823Z,99.90
2019-03-22T08:41:29.289Z,99.90
2019-03-22T08:44:30.593Z,99.90
2019-03-22T08:47:34.240Z,99.90
2019-03-22T08:50:33.456Z,99.00
2019-03-22T08:53:34.521Z,95.50
2019-03-22T08:56:36.287Z,92.70
2019-03-22T08:59:37.293Z,92.30
2019-03-22T09:02:38.902Z,91.90
2019-03-22T09:05:40.015Z,88.40
2019-03-22T09:08:41.680Z,83.60
2019-03-22T09:11:43.310Z,83.70
2019-03-22T09:14:45.131Z,80.20
2019-03-22T09:17:46.556Z,81.30
2019-03-22T09:20:47.854Z,79.00
2019-03-22T09:23:37.099Z,80.60
2019-03-22T09:26:47.554Z,74.90
2019-03-22T09:29:41.648Z,70.00
2019-03-22T09:32:42.828Z,68.00
2019-03-22T09:35:44.557Z,66.40
2019-03-22T09:38:45.725Z,62.90
2019-03-22T09:41:47.151Z,57.40
2019-03-22T09:44:48.131Z,56.20
2019-03-22T09:47:49.796Z,54.40
2019-03-22T09:50:51.503Z,53.80
2019-03-22T09:53:53.440Z,51.70
2019-03-22T09:56:54.327Z,50.90
2019-03-22T09:59:55.921Z,50.70
2019-03-22T10:02:57.555Z,48.00
2019-03-22T10:05:58.476Z,48.70
2019-03-22T10:09:03.927Z,48.90
2019-03-22T10:12:03.263Z,49.00
2019-03-22T10:15:04.946Z,48.70
2019-03-22T10:18:06.404Z,48.30
2019-03-22T10:21:07.885Z,47.30
2019-03-22T10:24:09.811Z,47.40
2019-03-22T10:27:14.793Z,48.10
2019-03-22T10:30:16.332Z,47.00
2019-03-22T10:33:22.986Z,45.40
2019-03-22T10:36:08.735Z,44.80
2019-03-22T10:39:09.947Z,43.70
2019-03-22T10:42:11.654Z,43.30
2019-03-22T10:45:13.174Z,42.50
2019-03-22T10:48:14.574Z,41.90
2019-03-22T10:51:16.206Z,40.90
2019-03-22T10:54:16.814Z,41.40
2019-03-22T10:57:17.585Z,42.10
2019-03-22T11:00:18.324Z,39.60
2019-03-22T11:03:20.231Z,40.50
2019-03-22T11:06:26.265Z,39.90
2019-03-22T11:09:25.329Z,40.80
2019-03-22T11:12:26.337Z,40.30
2019-03-22T11:18:49.713Z,41.00
2019-03-22T11:21:50.337Z,39.00
2019-03-22T11:24:51.816Z,40.00
2019-03-22T11:27:52.614Z,39.00
2019-03-22T11:30:53.458Z,39.00
2019-03-22T11:33:54.925Z,38.00
2019-03-22T11:36:56.421Z,36.60
2019-03-22T11:39:57.735Z,36.80
2019-03-22T11:43:08.023Z,34.90
2019-03-22T11:46:01.695Z,35.70
2019-03-22T11:51:47.072Z,36.60
2019-03-22T11:54:48.355Z,38.40
2019-03-22T11:57:50.345Z,37.30
2019-03-22T12:00:55.102Z,36.50
2019-03-22T12:03:56.450Z,36.00
2019-03-22T12:06:57.903Z,35.90
2019-03-22T12:09:58.618Z,35.20
2019-03-22T12:12:59.970Z,35.60
2019-03-22T12:16:00.699Z,36.40
2019-03-22T12:19:01.448Z,37.70
2019-03-22T12:22:02.804Z,37.80
2019-03-22T12:25:03.350Z,37.20
2019-03-22T12:28:04.568Z,35.20
2019-03-22T12:31:05.401Z,35.80
2019-03-22T12:34:06.185Z,35.40
2019-03-22T12:37:06.887Z,35.20
2019-03-22T12:40:07.809Z,35.40
2019-03-22T12:43:08.804Z,34.20
2019-03-22T12:46:10.071Z,33.40
2019-03-22T12:49:11.342Z,33.30
2019-03-22T12:52:12.131Z,34.20
2019-03-22T12:55:13.541Z,33.80
2019-03-22T12:58:15.189Z,33.70
2019-03-22T13:04:04.643Z,33.70
2019-03-22T13:07:05.212Z,33.50
2019-03-22T13:10:05.733Z,31.90
2019-03-22T13:13:07.347Z,31.80
2019-03-22T13:16:07.945Z,33.10
2019-03-22T13:19:09.491Z,34.00
2019-03-22T13:22:10.924Z,34.20
2019-03-22T13:25:12.428Z,34.20
2019-03-22T13:28:13.766Z,32.40
2019-03-22T13:31:14.523Z,31.90
2019-03-22T13:34:15.100Z,32.30
2019-03-22T13:37:16.577Z,32.70
2019-03-22T13:40:17.610Z,31.70
2019-03-22T13:43:18.169Z,31.30
2019-03-22T13:46:19.697Z,32.40
2019-03-22T13:49:20.902Z,30.60
2019-03-22T13:52:22.204Z,30.70
2019-03-22T13:55:23.600Z,31.40
2019-03-22T13:58:24.930Z,32.90
2019-03-22T14:01:26.266Z,31.90
2019-03-22T14:04:26.859Z,32.70
2019-03-22T14:07:27.650Z,33.00
2019-03-22T14:10:28.569Z,32.90
2019-03-22T14:13:30.044Z,34.70
2019-03-22T14:16:31.515Z,33.90
2019-03-22T14:19:32.979Z,34.10
2019-03-22T14:22:33.748Z,34.10
2019-03-22T14:25:35.211Z,34.10
2019-03-22T14:28:36.751Z,34.60
2019-03-22T14:31:38.131Z,35.40
2019-03-22T14:34:38.916Z,35.20
2019-03-22T14:37:40.781Z,35.20
2019-03-22T14:40:30.177Z,36.00
2019-03-22T14:43:38.337Z,36.80
2019-03-22T14:46:39.038Z,35.70
2019-03-22T14:49:39.670Z,33.80
2019-03-22T14:52:41.311Z,35.00
2019-03-22T14:55:42.575Z,35.50
2019-03-22T14:58:31.792Z,35.60
2019-03-22T15:01:40.353Z,35.10
2019-03-22T15:04:41.747Z,34.30
2019-03-22T15:07:43.433Z,35.80
2019-03-22T15:10:44.030Z,36.00
2019-03-22T15:17:07.478Z,35.50
2019-03-22T15:20:35.162Z,34.90
2019-03-22T15:24:03.208Z,35.40
2019-03-22T15:27:18.334Z,35.40
2019-03-22T15:30:39.198Z,35.40
2019-03-22T15:34:05.057Z,36.90
2019-03-22T15:37:26.247Z,36.40
2019-03-22T15:40:28.243Z,37.50
2019-03-22T15:43:29.562Z,37.60
2019-03-22T15:46:31.248Z,37.50
2019-03-22T15:49:32.582Z,37.30
2019-03-22T15:52:34.119Z,37.30
2019-03-22T15:55:35.809Z,37.00
2019-03-22T15:58:37.367Z,37.90
2019-03-22T16:01:39.130Z,38.70
2019-03-22T16:04:40.517Z,38.40
2019-03-22T16:07:41.546Z,38.30
2019-03-22T16:10:43.202Z,39.20
2019-03-22T16:13:44.770Z,38.80
2019-03-22T16:16:46.194Z,39.20
2019-03-22T16:19:47.306Z,39.70
2019-03-22T16:25:32.162Z,41.80
2019-03-22T16:28:33.825Z,42.60
2019-03-22T16:31:35.175Z,43.00
2019-03-22T16:34:36.535Z,42.60
2019-03-22T16:37:37.555Z,41.80
2019-03-22T16:40:39.265Z,43.30
2019-03-22T16:43:40.971Z,44.70
2019-03-22T16:46:42.239Z,44.30
2019-03-22T16:49:43.387Z,43.60
2019-03-22T16:52:44.875Z,44.40
2019-03-22T16:55:46.385Z,44.70
2019-03-22T16:58:47.517Z,45.00
2019-03-22T17:01:49.233Z,44.60
2019-03-22T17:04:50.569Z,44.70
2019-03-22T17:07:52.067Z,45.00
2019-03-22T17:10:53.636Z,44.80
2019-03-22T17:13:55.199Z,45.50
2019-03-22T17:16:56.205Z,46.50
2019-03-22T17:19:57.626Z,47.60
2019-03-22T17:22:59.318Z,48.10
2019-03-22T17:26:00.653Z,48.90
2019-03-22T17:29:02.082Z,49.30
2019-03-22T17:32:03.843Z,49.50
2019-03-22T17:35:04.729Z,50.00
2019-03-22T17:38:06.250Z,50.60
2019-03-22T17:41:07.950Z,51.20
2019-03-22T17:44:10.741Z,51.30
2019-03-22T17:47:12.230Z,51.40
2019-03-22T17:50:13.700Z,51.70
2019-03-22T17:53:15.506Z,52.40
2019-03-22T17:56:16.939Z,53.30
2019-03-22T17:59:18.446Z,53.10
2019-03-22T18:02:19.523Z,53.20
2019-03-22T18:05:20.293Z,53.70
2019-03-22T18:08:20.923Z,54.50
2019-03-22T18:11:21.635Z,54.30
2019-03-22T18:14:22.131Z,54.90
2019-03-22T18:17:22.415Z,55.50
2019-03-22T18:20:23.512Z,55.90
2019-03-22T18:23:24.259Z,56.00
2019-03-22T18:26:24.810Z,56.50
2019-03-22T18:29:26.938Z,56.80
2019-03-22T18:32:28.239Z,57.30
2019-03-22T18:35:29.513Z,57.80
2019-03-22T18:38:29.813Z,58.60
2019-03-22T18:41:30.299Z,59.00
2019-03-22T18:44:31.274Z,59.70
2019-03-22T18:47:31.604Z,60.00
2019-03-22T18:50:32.339Z,60.40
2019-03-22T18:53:33.546Z,60.90
2019-03-22T18:56:33.921Z,61.30
2019-03-22T18:59:34.212Z,62.10
2019-03-22T19:02:34.916Z,62.50
2019-03-22T19:05:35.587Z,62.90
2019-03-22T19:08:36.412Z,63.80
2019-03-22T19:11:36.739Z,65.00
2019-03-22T19:14:37.075Z,66.20
2019-03-22T19:17:37.861Z,67.50
2019-03-22T19:20:38.400Z,67.90
2019-03-22T19:23:38.961Z,68.00
2019-03-22T19:26:39.299Z,69.60
2019-03-22T19:29:39.714Z,72.00
2019-03-22T19:32:40.775Z,74.10
2019-03-22T19:35:41.633Z,75.30
2019-03-22T19:38:42.362Z,78.00
2019-03-22T19:41:42.806Z,79.90
2019-03-22T19:44:44.118Z,80.50
2019-03-22T19:47:45.397Z,80.80
2019-03-22T19:50:46.157Z,80.70
2019-03-22T19:53:46.796Z,81.90
2019-03-22T19:56:47.158Z,82.40
2019-03-22T19:59:47.698Z,85.10
2019-03-22T20:02:49.383Z,85.70
2019-03-22T20:05:50.468Z,89.60
2019-03-22T20:08:51.433Z,90.10
2019-03-22T20:11:52.869Z,90.80
2019-03-22T20:14:53.290Z,91.50
2019-03-22T20:17:54.009Z,92.30
2019-03-22T20:20:54.286Z,92.80
2019-03-22T20:23:54.985Z,93.70
2019-03-22T20:26:55.516Z,94.50
2019-03-22T20:29:56.090Z,94.10
2019-03-22T20:32:57.025Z,94.30
2019-03-22T20:35:57.672Z,95.30
2019-03-22T20:38:58.273Z,96.20
2019-03-22T20:41:58.615Z,97.00
2019-03-22T20:44:59.253Z,97.50
2019-03-22T20:47:59.750Z,98.60
2019-03-22T20:51:00.582Z,99.60
2019-03-22T20:54:01.054Z,99.90
2019-03-22T20:57:01.626Z,99.90
2019-03-22T21:00:02.094Z,99.90
2019-03-22T21:03:02.420Z,99.90
2019-03-22T21:06:04.563Z,99.90
2019-03-22T21:09:05.728Z,99.90
2019-03-22T21:12:06.964Z,99.90
2019-03-22T21:15:07.461Z,99.90
2019-03-22T21:18:08.319Z,99.90
2019-03-22T21:21:08.634Z,99.90
2019-03-22T21:24:09.122Z,99.90
2019-03-22T21:27:15.558Z,99.90
2019-03-22T21:30:12.684Z,99.90
2019-03-22T21:33:01.618Z,99.90
2019-03-22T21:36:09.510Z,99.90
2019-03-22T21:39:09.858Z,99.90
2019-03-22T21:42:10.180Z,99.90
2019-03-22T21:45:10.573Z,99.90
2019-03-22T21:48:10.865Z,99.90
2019-03-22T21:51:11.226Z,99.90
2019-03-22T21:54:11.977Z,99.90
2019-03-22T21:57:12.405Z,99.90
2019-03-22T22:00:12.964Z,99.90
2019-03-22T22:03:13.594Z,99.90
2019-03-22T22:06:14.828Z,99.90
2019-03-22T22:09:15.303Z,99.90
2019-03-22T22:12:16.467Z,99.90
2019-03-22T22:15:24.431Z,99.90
2019-03-22T22:18:32.344Z,99.90
2019-03-22T22:21:33.133Z,99.90
2019-03-22T22:24:33.523Z,99.90
2019-03-22T22:27:34.132Z,99.90
2019-03-22T22:30:35.009Z,99.90
2019-03-22T22:33:35.602Z,99.90
2019-03-22T22:36:35.906Z,99.90
2019-03-22T22:39:36.355Z,99.90
2019-03-22T22:42:37.461Z,99.90
2019-03-22T22:45:38.186Z,99.90
2019-03-22T22:48:38.818Z,99.90
2019-03-22T22:51:39.577Z,99.90
2019-03-22T22:54:40.218Z,99.90
2019-03-22T22:57:40.751Z,99.90
2019-03-22T23:00:41.597Z,99.90
2019-03-22T23:03:42.871Z,99.90
2019-03-22T23:06:43.486Z,99.90
2019-03-22T23:09:43.865Z,99.90
2019-03-22T23:12:44.329Z,99.90
2019-03-22T23:15:45.210Z,99.90
2019-03-22T23:18:45.590Z,99.90
2019-03-22T23:21:46.131Z,99.90
2019-03-22T23:24:47.214Z,99.90
2019-03-22T23:27:47.598Z,99.90
2019-03-22T23:30:47.924Z,99.90
2019-03-22T23:33:48.605Z,99.90
2019-03-22T23:36:49.336Z,99.90
2019-03-22T23:39:49.757Z,99.90
2019-03-22T23:42:50.741Z,99.90
2019-03-22T23:45:51.922Z,99.90
2019-03-22T23:48:52.761Z,99.90
2019-03-22T23:51:53.297Z,99.90
2019-03-22T23:54:54.031Z,99.90
2019-03-22T23:57:55.161Z,99.90
